createdAt,value
2019-02-15T00:01:27.396Z,102096.27
2019-02-15T00:04:13.682Z,102104.17
2019-02-15T00:07:00.660Z,102144.78
2019-02-15T00:09:46.932Z,102104.55
2019-02-15T00:12:33.372Z,102110.28
2019-02-15T00:15:19.659Z,102100.69
2019-02-15T00:18:22.791Z,102100.69
2019-02-15T00:21:19.091Z,102104.27
2019-02-15T00:24:05.128Z,102104.27
2019-02-15T00:26:56.496Z,102102.94
2019-02-15T00:29:43.211Z,102102.94
2019-02-15T00:32:29.131Z,102108.16
2019-02-15T00:35:15.084Z,102096.66
2019-02-15T00:38:01.269Z,102100.09
2019-02-15T00:40:47.725Z,102092.84
2019-02-15T00:43:33.638Z,102100.33
2019-02-15T00:46:39.524Z,102091.41
2019-02-15T00:49:47.751Z,102091.41
2019-02-15T00:52:51.729Z,102096.96
2019-02-15T00:55:49.075Z,102088.31
2019-02-15T00:58:47.271Z,102084.34
2019-02-15T01:01:49.576Z,102084.34
2019-02-15T01:04:55.714Z,102092.29
2019-02-15T01:08:08.039Z,102092.29
2019-02-15T01:11:16.564Z,102081.58
2019-02-15T01:14:02.397Z,102081.58
2019-02-15T01:16:48.568Z,102081.27
2019-02-15T01:19:35.160Z,102085.03
2019-02-15T01:22:21.564Z,102085.03
2019-02-15T01:25:07.716Z,102080.39
2019-02-15T01:27:59.557Z,102086.09
2019-02-15T01:30:56.255Z,102081.41
2019-02-15T01:33:52.917Z,102084.77
2019-02-15T01:36:58.423Z,102083.38
2019-02-15T01:40:10.088Z,102082.98
2019-02-15T01:43:39.825Z,102080.53
2019-02-15T01:46:27.440Z,102080.53
2019-02-15T01:49:13.295Z,102076.00
2019-02-15T01:51:59.303Z,102075.01
2019-02-15T01:54:47.174Z,102066.50
2019-02-15T01:57:33.257Z,102066.50
2019-02-15T02:00:20.848Z,102067.09
2019-02-15T02:03:07.163Z,102059.18
2019-02-15T02:05:53.588Z,102059.09
2019-02-15T02:08:40.438Z,102056.90
2019-02-15T02:11:27.029Z,102050.92
2019-02-15T02:14:13.841Z,102050.70
2019-02-15T02:16:59.821Z,102048.66
2019-02-15T02:19:46.264Z,102048.66
2019-02-15T02:22:32.063Z,102046.72
2019-02-15T02:25:19.871Z,102033.30
2019-02-15T02:28:08.879Z,102033.30
2019-02-15T02:30:56.711Z,102027.38
2019-02-15T02:33:42.719Z,102029.94
2019-02-15T02:36:55.259Z,102023.51
2019-02-15T02:39:41.171Z,102033.46
2019-02-15T02:42:27.178Z,102031.69
2019-02-15T02:45:13.643Z,102029.23
2019-02-15T02:47:59.765Z,102029.23
2019-02-15T02:50:45.860Z,102018.78
2019-02-15T02:53:32.173Z,102025.66
2019-02-15T02:56:18.159Z,102025.66
2019-02-15T02:59:04.199Z,102024.83
2019-02-15T03:01:50.754Z,102026.15
2019-02-15T03:04:36.800Z,102020.27
2019-02-15T03:07:22.864Z,102021.55
2019-02-15T03:10:09.141Z,102006.61
2019-02-15T03:12:55.179Z,102017.77
2019-02-15T03:15:41.021Z,102017.77
2019-02-15T03:18:27.545Z,102019.23
2019-02-15T03:21:13.617Z,102011.93
2019-02-15T03:23:59.803Z,102015.17
2019-02-15T03:26:46.025Z,102015.07
2019-02-15T03:29:32.060Z,102010.60
2019-02-15T03:32:18.014Z,102004.45
2019-02-15T03:35:04.922Z,102010.89
2019-02-15T03:37:58.665Z,102007.33
2019-02-15T03:40:50.913Z,102007.33
2019-02-15T03:43:37.198Z,102004.13
2019-02-15T03:46:23.503Z,102004.13
2019-02-15T03:49:10.012Z,102006.91
2019-02-15T03:51:56.104Z,102006.91
2019-02-15T03:54:42.376Z,102001.80
2019-02-15T03:57:29.665Z,101998.54
2019-02-15T04:00:15.753Z,101999.83
2019-02-15T04:03:01.807Z,101990.10
2019-02-15T04:05:47.662Z,101992.87
2019-02-15T04:08:33.703Z,101997.75
2019-02-15T04:11:20.509Z,101997.75
2019-02-15T04:14:06.816Z,101997.98
2019-02-15T04:16:52.995Z,102003.83
2019-02-15T04:19:38.829Z,102001.83
2019-02-15T04:22:25.197Z,101995.44
2019-02-15T04:25:11.429Z,102002.48
2019-02-15T04:27:58.042Z,102002.48
2019-02-15T04:30:44.368Z,101993.58
2019-02-15T04:33:30.448Z,101993.58
2019-02-15T04:36:16.418Z,101992.02
2019-02-15T04:39:04.473Z,101992.02
2019-02-15T04:41:51.522Z,101987.22
2019-02-15T04:44:42.781Z,101986.45
2019-02-15T04:47:25.713Z,101986.48
2019-02-15T04:50:11.558Z,101987.20
2019-02-15T04:52:58.789Z,101996.72
2019-02-15T04:55:45.069Z,102002.27
2019-02-15T04:58:31.091Z,101996.16
2019-02-15T05:01:17.689Z,101996.16
2019-02-15T05:04:03.774Z,101996.13
2019-02-15T05:06:49.730Z,101994.84
2019-02-15T05:09:35.962Z,101994.80
2019-02-15T05:12:22.298Z,101998.84
2019-02-15T05:15:08.404Z,101995.24
2019-02-15T05:17:57.741Z,101994.85
2019-02-15T05:20:43.832Z,101993.00
2019-02-15T05:23:29.673Z,101991.66
2019-02-15T05:26:15.895Z,101990.72
2019-02-15T05:29:02.194Z,101992.25
2019-02-15T05:31:50.993Z,101992.25
2019-02-15T05:34:37.571Z,101992.70
2019-02-15T05:37:23.574Z,101995.88
2019-02-15T05:40:09.529Z,101995.88
2019-02-15T05:42:56.721Z,101998.91
2019-02-15T05:45:43.041Z,101992.13
2019-02-15T05:48:28.904Z,101992.84
2019-02-15T05:51:15.261Z,101992.44
2019-02-15T05:54:01.173Z,101994.52
2019-02-15T05:56:47.141Z,101992.84
2019-02-15T05:59:33.397Z,101991.92
2019-02-15T06:02:19.715Z,101990.89
2019-02-15T06:05:06.338Z,101988.90
2019-02-15T06:07:52.854Z,101988.66
2019-02-15T06:10:38.866Z,101989.09
2019-02-15T06:13:28.750Z,101987.05
2019-02-15T06:16:17.582Z,101986.67
2019-02-15T06:19:03.818Z,101984.96
2019-02-15T06:21:49.602Z,101985.77
2019-02-15T06:24:37.985Z,101981.55
2019-02-15T06:27:24.030Z,101989.28
2019-02-15T06:30:10.282Z,101986.20
2019-02-15T06:32:59.046Z,101986.20
2019-02-15T06:35:45.060Z,101990.33
2019-02-15T06:38:34.721Z,101995.34
2019-02-15T06:41:19.308Z,101990.23
2019-02-15T06:44:05.115Z,101990.23
2019-02-15T06:46:51.159Z,101994.21
2019-02-15T06:49:38.431Z,101989.49
2019-02-15T06:52:24.441Z,101988.22
2019-02-15T06:55:10.593Z,101988.22
2019-02-15T06:57:57.127Z,101985.98
2019-02-15T07:01:05.694Z,101988.16
2019-02-15T07:03:58.416Z,101990.16
2019-02-15T07:06:44.221Z,101993.67
2019-02-15T07:09:31.214Z,101991.40
2019-02-15T07:12:17.198Z,101989.05
2019-02-15T07:15:03.989Z,101991.84
2019-02-15T07:17:52.371Z,101989.77
2019-02-15T07:20:38.322Z,101986.48
2019-02-15T07:23:24.279Z,101996.48
2019-02-15T07:26:10.569Z,101991.67
2019-02-15T07:28:59.050Z,101988.97
2019-02-15T07:31:47.227Z,101992.92
2019-02-15T07:34:33.534Z,101989.20
2019-02-15T07:37:19.535Z,101989.08
2019-02-15T07:40:08.157Z,101993.56
2019-02-15T07:42:54.228Z,101988.55
2019-02-15T07:45:43.120Z,101993.34
2019-02-15T07:48:29.446Z,101993.03
2019-02-15T07:51:17.678Z,101993.98
2019-02-15T07:54:03.918Z,101993.39
2019-02-15T07:56:49.881Z,101988.18
2019-02-15T07:59:38.008Z,101987.65
2019-02-15T08:02:23.988Z,101982.16
2019-02-15T08:05:10.334Z,101984.76
2019-02-15T08:07:58.598Z,101987.05
2019-02-15T08:10:44.822Z,101988.87
2019-02-15T08:13:30.961Z,101980.91
2019-02-15T08:16:18.542Z,101979.00
2019-02-15T08:19:04.432Z,101976.78
2019-02-15T08:21:50.458Z,101978.72
2019-02-15T08:24:36.948Z,101973.66
2019-02-15T08:27:22.981Z,101978.17
2019-02-15T08:30:09.232Z,101972.78
2019-02-15T08:32:55.515Z,101971.91
2019-02-15T08:35:41.928Z,101971.28
2019-02-15T08:38:31.244Z,101968.05
2019-02-15T08:41:17.636Z,101965.83
2019-02-15T08:44:03.715Z,101970.64
2019-02-15T08:46:50.936Z,101967.69
2019-02-15T08:49:37.483Z,101964.72
2019-02-15T08:52:23.416Z,101966.13
2019-02-15T08:55:09.610Z,101964.83
2019-02-15T08:57:56.320Z,101963.95
2019-02-15T09:00:45.051Z,101961.14
2019-02-15T09:03:31.236Z,101964.45
2019-02-15T09:06:17.204Z,101959.73
2019-02-15T09:09:04.999Z,101959.50
2019-02-15T09:11:53.768Z,101957.58
2019-02-15T09:14:41.140Z,101952.29
2019-02-15T09:17:30.786Z,101955.59
2019-02-15T09:20:18.846Z,101956.00
2019-02-15T09:23:05.384Z,101960.20
2019-02-15T09:25:51.249Z,101965.08
2019-02-15T09:28:53.550Z,101964.35
2019-02-15T09:31:40.918Z,101963.58
2019-02-15T09:34:27.003Z,101959.31
2019-02-15T09:37:13.341Z,101952.87
2019-02-15T09:39:59.540Z,101954.24
2019-02-15T09:42:45.736Z,101957.03
2019-02-15T09:45:32.970Z,101957.12
2019-02-15T09:48:20.730Z,101955.15
2019-02-15T09:51:07.143Z,101951.71
2019-02-15T09:53:55.605Z,101953.48
2019-02-15T09:56:41.546Z,101956.51
2019-02-15T09:59:27.494Z,101954.55
2019-02-15T10:02:13.924Z,101948.65
2019-02-15T10:04:59.850Z,101941.48
2019-02-15T10:07:45.853Z,101948.09
2019-02-15T10:10:38.188Z,101943.90
2019-02-15T10:13:26.938Z,101942.25
2019-02-15T10:16:13.070Z,101946.88
2019-02-15T10:19:03.314Z,101938.36
2019-02-15T10:21:49.578Z,101940.09
2019-02-15T10:24:35.822Z,101944.92
2019-02-15T10:27:23.189Z,101942.72
2019-02-15T10:30:09.788Z,101940.14
2019-02-15T10:32:56.205Z,101939.71
2019-02-15T10:35:42.546Z,101945.34
2019-02-15T10:38:31.360Z,101938.39
2019-02-15T10:41:17.687Z,101938.83
2019-02-15T10:44:11.428Z,101945.32
2019-02-15T10:46:57.304Z,101935.78
2019-02-15T10:49:44.298Z,101931.44
2019-02-15T10:52:30.925Z,101929.17
2019-02-15T10:55:18.416Z,101925.78
2019-02-15T10:58:04.295Z,101927.48
2019-02-15T11:00:50.669Z,101924.92
2019-02-15T11:03:37.688Z,101919.70
2019-02-15T11:06:23.901Z,101920.95
2019-02-15T11:09:12.432Z,101917.49
2019-02-15T11:12:01.168Z,101917.03
2019-02-15T11:14:50.225Z,101909.72
2019-02-15T11:17:36.661Z,101910.73
2019-02-15T11:20:25.390Z,101907.98
2019-02-15T11:23:12.295Z,101895.89
2019-02-15T11:26:04.566Z,101896.97
2019-02-15T11:28:51.066Z,101895.66
2019-02-15T11:31:37.472Z,101889.84
2019-02-15T11:34:24.100Z,101892.03
2019-02-15T11:37:10.956Z,101886.45
2019-02-15T11:39:57.105Z,101886.09
2019-02-15T11:42:43.629Z,101877.91
2019-02-15T11:45:29.923Z,101873.39
2019-02-15T11:48:16.726Z,101875.91
2019-02-15T11:51:03.971Z,101873.89
2019-02-15T11:53:50.144Z,101867.24
2019-02-15T11:56:36.399Z,101864.67
2019-02-15T11:59:24.867Z,101859.22
2019-02-15T12:02:11.084Z,101861.08
2019-02-15T12:04:56.912Z,101854.64
2019-02-15T12:07:44.081Z,101860.09
2019-02-15T12:10:33.090Z,101849.83
2019-02-15T12:13:21.879Z,101845.89
2019-02-15T12:16:09.346Z,101842.65
2019-02-15T12:18:58.051Z,101836.45
2019-02-15T12:21:47.484Z,101833.13
2019-02-15T12:24:33.479Z,101833.00
2019-02-15T12:27:19.996Z,101825.83
2019-02-15T12:30:09.657Z,101825.39
2019-02-15T12:32:58.901Z,101821.25
2019-02-15T12:35:45.225Z,101819.42
2019-02-15T12:38:31.810Z,101814.52
2019-02-15T12:41:29.993Z,101813.27
2019-02-15T12:44:27.764Z,101814.98
2019-02-15T12:47:27.610Z,101803.80
2019-02-15T12:50:24.763Z,101795.56
2019-02-15T12:53:16.680Z,101800.45
2019-02-15T12:56:03.555Z,101794.05
2019-02-15T12:58:51.493Z,101788.66
2019-02-15T13:01:38.640Z,101790.15
2019-02-15T13:04:24.351Z,101778.34
2019-02-15T13:07:10.847Z,101776.64
2019-02-15T13:09:58.825Z,101772.12
2019-02-15T13:12:44.836Z,101781.21
2019-02-15T13:15:31.268Z,101770.91
2019-02-15T13:18:21.199Z,101764.69
2019-02-15T13:21:07.122Z,101761.17
2019-02-15T13:23:53.758Z,101757.98
2019-02-15T13:26:39.623Z,101754.84
2019-02-15T13:29:28.322Z,101748.33
2019-02-15T13:32:15.017Z,101743.61
2019-02-15T13:35:01.169Z,101739.95
2019-02-15T13:37:47.180Z,101740.47
2019-02-15T13:40:37.793Z,101733.83
2019-02-15T13:43:23.723Z,101733.52
2019-02-15T13:46:21.077Z,101729.20
2019-02-15T13:49:09.504Z,101729.65
2019-02-15T13:51:55.745Z,101733.03
2019-02-15T13:54:41.978Z,101729.36
2019-02-15T13:57:32.965Z,101724.52
2019-02-15T14:00:19.626Z,101713.39
2019-02-15T14:03:11.442Z,101713.94
2019-02-15T14:05:57.649Z,101705.31
2019-02-15T14:08:43.776Z,101702.84
2019-02-15T14:11:29.573Z,101697.29
2019-02-15T14:14:15.508Z,101694.77
2019-02-15T14:17:04.391Z,101696.16
2019-02-15T14:19:52.220Z,101693.98
2019-02-15T14:22:40.656Z,101688.39
2019-02-15T14:25:27.470Z,101685.70
2019-02-15T14:28:17.575Z,101673.53
2019-02-15T14:31:03.888Z,101672.96
2019-02-15T14:33:52.809Z,101670.16
2019-02-15T14:36:46.987Z,101664.47
2019-02-15T14:39:32.877Z,101659.04
2019-02-15T14:42:18.771Z,101662.52
2019-02-15T14:45:08.661Z,101652.53
2019-02-15T14:47:55.509Z,101650.33
2019-02-15T14:50:41.384Z,101651.58
2019-02-15T14:53:27.843Z,101648.25
2019-02-15T14:56:20.195Z,101641.78
2019-02-15T14:59:06.498Z,101645.65
2019-02-15T15:01:52.801Z,101640.92
2019-02-15T15:04:38.912Z,101638.83
2019-02-15T15:07:25.393Z,101633.02
2019-02-15T15:10:12.054Z,101623.09
2019-02-15T15:12:57.787Z,101627.20
2019-02-15T15:15:43.853Z,101621.21
2019-02-15T15:18:30.598Z,101619.08
2019-02-15T15:21:20.386Z,101624.14
2019-02-15T15:24:08.434Z,101620.19
2019-02-15T15:26:55.083Z,101614.27
2019-02-15T15:29:41.132Z,101612.28
2019-02-15T15:32:29.869Z,101606.61
2019-02-15T15:35:16.701Z,101603.14
2019-02-15T15:38:02.893Z,101597.95
2019-02-15T15:40:49.114Z,101597.53
2019-02-15T15:43:36.358Z,101596.34
2019-02-15T15:46:22.725Z,101594.41
2019-02-15T15:49:08.722Z,101589.81
2019-02-15T15:51:55.128Z,101585.16
2019-02-15T15:54:41.582Z,101591.33
2019-02-15T15:57:29.644Z,101586.14
2019-02-15T16:00:16.722Z,101579.02
2019-02-15T16:03:02.957Z,101580.77
2019-02-15T16:05:49.419Z,101581.86
2019-02-15T16:08:40.948Z,101581.95
2019-02-15T16:11:32.965Z,101581.64
2019-02-15T16:14:20.897Z,101580.81
2019-02-15T16:17:06.868Z,101578.02
2019-02-15T16:19:54.372Z,101570.23
2019-02-15T16:22:41.190Z,101572.44
2019-02-15T16:25:27.108Z,101574.55
2019-02-15T16:28:14.177Z,101563.79
2019-02-15T16:31:03.257Z,101562.11
2019-02-15T16:33:51.798Z,101564.47
2019-02-15T16:36:40.139Z,101562.80
2019-02-15T16:39:30.490Z,101567.69
2019-02-15T16:42:16.472Z,101563.03
2019-02-15T16:45:02.844Z,101560.84
2019-02-15T16:47:49.486Z,101564.02
2019-02-15T16:50:35.575Z,101562.30
2019-02-15T16:53:21.498Z,101565.41
2019-02-15T16:56:10.482Z,101563.75
2019-02-15T16:58:59.046Z,101563.33
2019-02-15T17:01:45.535Z,101563.36
2019-02-15T17:04:32.176Z,101564.70
2019-02-15T17:07:18.313Z,101563.44
2019-02-15T17:10:07.936Z,101567.78
2019-02-15T17:12:54.281Z,101567.80
2019-02-15T17:15:40.136Z,101566.05
2019-02-15T17:18:27.685Z,101568.21
2019-02-15T17:21:13.639Z,101562.14
2019-02-15T17:24:00.090Z,101565.16
2019-02-15T17:26:46.767Z,101560.23
2019-02-15T17:29:38.080Z,101567.55
2019-02-15T17:35:13.837Z,101566.04
2019-02-15T17:37:59.851Z,101565.15
2019-02-15T17:41:16.704Z,101560.88
2019-02-15T17:44:15.072Z,101552.65
2019-02-15T17:47:01.368Z,101554.73
2019-02-15T17:50:05.777Z,101547.12
2019-02-15T17:55:47.828Z,101546.33
2019-02-15T17:58:34.580Z,101544.34
2019-02-15T18:01:20.841Z,101546.48
2019-02-15T18:04:06.933Z,101546.19
2019-02-15T18:06:53.345Z,101547.34
2019-02-15T18:09:39.415Z,101555.20
2019-02-15T18:12:29.118Z,101549.16
2019-02-15T18:15:15.526Z,101546.04
2019-02-15T18:18:02.009Z,101544.88
2019-02-15T18:20:48.464Z,101538.69
2019-02-15T18:23:37.667Z,101534.76
2019-02-15T18:26:24.899Z,101527.23
2019-02-15T18:29:11.633Z,101531.77
2019-02-15T18:31:57.657Z,101528.77
2019-02-15T18:34:43.622Z,101526.70
2019-02-15T18:37:33.549Z,101524.11
2019-02-15T18:40:21.434Z,101520.53
2019-02-15T18:43:12.794Z,101513.19
2019-02-15T18:46:11.261Z,101513.94
2019-02-15T18:48:57.366Z,101514.29
2019-02-15T18:51:43.414Z,101513.66
2019-02-15T18:54:29.679Z,101511.92
2019-02-15T18:57:17.255Z,101516.40
2019-02-15T19:00:04.016Z,101515.95
2019-02-15T19:02:51.712Z,101513.59
2019-02-15T19:05:40.059Z,101515.57
2019-02-15T19:08:26.015Z,101515.70
2019-02-15T19:11:12.785Z,101512.56
2019-02-15T19:13:59.065Z,101512.59
2019-02-15T19:16:49.712Z,101499.46
2019-02-15T19:19:39.036Z,101498.23
2019-02-15T19:22:27.049Z,101497.95
2019-02-15T19:25:13.633Z,101496.58
2019-02-15T19:28:00.156Z,101490.05
2019-02-15T19:30:46.401Z,101485.80
2019-02-15T19:33:35.558Z,101482.67
2019-02-15T19:36:24.857Z,101483.55
2019-02-15T19:39:11.085Z,101473.73
2019-02-15T19:41:58.411Z,101472.28
2019-02-15T19:44:44.854Z,101473.93
2019-02-15T19:47:32.587Z,101473.89
2019-02-15T19:50:18.644Z,101469.16
2019-02-15T19:53:07.015Z,101471.51
2019-02-15T19:55:56.227Z,101470.22
2019-02-15T19:58:43.851Z,101470.74
2019-02-15T20:01:32.297Z,101473.96
2019-02-15T20:04:18.256Z,101471.09
2019-02-15T20:07:04.556Z,101470.58
2019-02-15T20:09:54.677Z,101470.87
2019-02-15T20:12:40.718Z,101473.73
2019-02-15T20:15:26.714Z,101470.78
2019-02-15T20:18:15.911Z,101470.94
2019-02-15T20:21:02.324Z,101468.25
2019-02-15T20:23:48.722Z,101463.44
2019-02-15T20:26:38.588Z,101465.14
2019-02-15T20:29:24.885Z,101459.83
2019-02-15T20:32:19.995Z,101456.15
2019-02-15T20:35:08.414Z,101455.13
2019-02-15T20:37:54.677Z,101454.39
2019-02-15T20:40:40.906Z,101450.59
2019-02-15T20:43:26.759Z,101450.91
2019-02-15T20:46:12.910Z,101446.95
2019-02-15T20:49:05.081Z,101447.44
2019-02-15T20:51:52.900Z,101442.67
2019-02-15T20:54:46.385Z,101449.53
2019-02-15T20:57:45.340Z,101448.48
2019-02-15T21:00:34.877Z,101451.31
2019-02-15T21:03:22.497Z,101445.52
2019-02-15T21:06:08.853Z,101446.66
2019-02-15T21:08:56.889Z,101444.02
2019-02-15T21:11:43.454Z,101439.58
2019-02-15T21:14:30.815Z,101437.86
2019-02-15T21:17:16.891Z,101444.84
2019-02-15T21:20:07.786Z,101446.92
2019-02-15T21:22:51.976Z,101445.11
2019-02-15T21:25:37.713Z,101440.11
2019-02-15T21:28:24.105Z,101440.76
2019-02-15T21:31:11.528Z,101439.36
2019-02-15T21:34:00.143Z,101438.03
2019-02-15T21:36:47.374Z,101442.65
2019-02-15T21:39:33.551Z,101441.62
2019-02-15T21:42:21.422Z,101437.99
2019-02-15T21:45:08.326Z,101435.42
2019-02-15T21:47:54.555Z,101438.59
2019-02-15T21:50:44.007Z,101437.39
2019-02-15T21:53:29.819Z,101436.33
2019-02-15T21:56:15.849Z,101432.02
2019-02-15T21:59:02.094Z,101434.89
2019-02-15T22:01:48.106Z,101421.41
2019-02-15T22:04:34.101Z,101425.41
2019-02-15T22:07:22.574Z,101419.04
2019-02-15T22:10:08.931Z,101424.80
2019-02-15T22:12:55.209Z,101422.06
2019-02-15T22:15:42.927Z,101425.14
2019-02-15T22:18:29.170Z,101428.46
2019-02-15T22:21:15.093Z,101428.05
2019-02-15T22:24:01.631Z,101421.36
2019-02-15T22:27:33.363Z,101419.16
2019-02-15T22:30:22.392Z,101419.05
2019-02-15T22:33:09.570Z,101426.92
2019-02-15T22:35:55.695Z,101423.58
2019-02-15T22:38:45.040Z,101418.03
2019-02-15T22:41:31.156Z,101425.36
2019-02-15T22:44:17.646Z,101424.67
2019-02-15T22:47:03.782Z,101424.69
2019-02-15T22:49:50.275Z,101417.89
2019-02-15T22:52:36.869Z,101416.24
2019-02-15T22:55:25.971Z,101416.33
2019-02-15T22:58:15.762Z,101412.56
2019-02-15T23:01:13.193Z,101412.25
2019-02-15T23:03:59.286Z,101416.73
2019-02-15T23:06:45.242Z,101403.85
2019-02-15T23:09:31.984Z,101400.91
2019-02-15T23:12:18.842Z,101407.61
2019-02-15T23:15:09.905Z,101403.77
2019-02-15T23:20:45.559Z,101400.56
2019-02-15T23:23:31.522Z,101399.50
2019-02-15T23:26:17.571Z,101397.02
2019-02-15T23:47:19.892Z,101389.77
2019-02-15T23:50:06.773Z,101380.19
2019-02-15T23:52:54.395Z,101378.48
2019-02-15T23:55:43.213Z,101380.55
2019-02-15T23:58:29.404Z,101381.14
